sensor_id;sensor_type;location;lat;lon;timestamp;pressure;altitude;pressure_sealevel;temperature;humidity
29839;BME280;18669;53.356;-1.464;2022-12-18T00:02:03;101060.81;;;1.12;100.00
29839;BME280;18669;53.356;-1.464;2022-12-18T00:04:30;101060.84;;;1.14;100.00
29839;BME280;18669;53.356;-1.464;2022-12-18T00:06:57;101050.56;;;1.17;100.00
29839;BME280;18669;53.356;-1.464;2022-12-18T00:09:29;101045.50;;;1.22;100.00
29839;BME280;18669;53.356;-1.464;2022-12-18T00:11:55;101039.03;;;1.41;100.00
29839;BME280;18669;53.356;-1.464;2022-12-18T00:14:21;101045.28;;;1.12;100.00
29839;BME280;18669;53.356;-1.464;2022-12-18T00:16:47;101047.69;;;1.06;100.00
29839;BME280;18669;53.356;-1.464;2022-12-18T00:19:14;101049.38;;;1.04;100.00
29839;BME280;18669;53.356;-1.464;2022-12-18T00:21:41;101049.34;;;1.02;100.00
29839;BME280;18669;53.356;-1.464;2022-12-18T00:24:08;101045.69;;;0.94;100.00
29839;BME280;18669;53.356;-1.464;2022-12-18T00:26:36;101046.59;;;0.96;100.00
29839;BME280;18669;53.356;-1.464;2022-12-18T00:29:09;101046.75;;;1.02;100.00
29839;BME280;18669;53.356;-1.464;2022-12-18T00:31:37;101051.81;;;0.98;100.00
29839;BME280;18669;53.356;-1.464;2022-12-18T00:34:03;101056.72;;;0.87;100.00
29839;BME280;18669;53.356;-1.464;2022-12-18T00:36:32;101059.56;;;0.96;100.00
29839;BME280;18669;53.356;-1.464;2022-12-18T00:39:01;101060.31;;;0.94;100.00
29839;BME280;18669;53.356;-1.464;2022-12-18T00:41:27;101066.16;;;0.85;100.00
29839;BME280;18669;53.356;-1.464;2022-12-18T00:44:14;101059.31;;;0.88;100.00
29839;BME280;18669;53.356;-1.464;2022-12-18T00:46:42;101051.44;;;0.82;100.00
29839;BME280;18669;53.356;-1.464;2022-12-18T00:49:09;101053.03;;;0.79;100.00
29839;BME280;18669;53.356;-1.464;2022-12-18T00:51:39;101051.09;;;0.70;100.00
29839;BME280;18669;53.356;-1.464;2022-12-18T00:54:05;101051.00;;;0.67;100.00
29839;BME280;18669;53.356;-1.464;2022-12-18T00:56:31;101047.50;;;0.65;100.00
29839;BME280;18669;53.356;-1.464;2022-12-18T00:58:57;101051.72;;;0.61;100.00
29839;BME280;18669;53.356;-1.464;2022-12-18T01:01:23;101061.19;;;0.61;100.00
29839;BME280;18669;53.356;-1.464;2022-12-18T01:03:49;101061.19;;;0.61;100.00
29839;BME280;18669;53.356;-1.464;2022-12-18T01:06:16;101063.09;;;0.66;100.00
29839;BME280;18669;53.356;-1.464;2022-12-18T01:08:43;101060.41;;;0.63;100.00
29839;BME280;18669;53.356;-1.464;2022-12-18T01:11:15;101057.84;;;0.65;100.00
29839;BME280;18669;53.356;-1.464;2022-12-18T01:13:42;101056.09;;;0.64;100.00
29839;BME280;18669;53.356;-1.464;2022-12-18T01:16:11;101060.50;;;0.66;100.00
29839;BME280;18669;53.356;-1.464;2022-12-18T01:18:37;101059.22;;;0.50;100.00
29839;BME280;18669;53.356;-1.464;2022-12-18T01:21:08;101050.88;;;0.62;100.00
29839;BME280;18669;53.356;-1.464;2022-12-18T01:23:34;101042.69;;;0.47;100.00
29839;BME280;18669;53.356;-1.464;2022-12-18T01:26:05;101040.38;;;0.57;100.00
29839;BME280;18669;53.356;-1.464;2022-12-18T01:28:32;101047.00;;;0.46;100.00
29839;BME280;18669;53.356;-1.464;2022-12-18T01:31:12;101037.94;;;0.62;100.00
29839;BME280;18669;53.356;-1.464;2022-12-18T01:33:39;101035.75;;;0.46;100.00
29839;BME280;18669;53.356;-1.464;2022-12-18T01:36:05;101035.91;;;0.50;100.00
29839;BME280;18669;53.356;-1.464;2022-12-18T01:38:31;101041.03;;;0.49;100.00
29839;BME280;18669;53.356;-1.464;2022-12-18T01:40:58;101038.53;;;0.52;100.00
29839;BME280;18669;53.356;-1.464;2022-12-18T01:46:36;101040.06;;;0.45;100.00
29839;BME280;18669;53.356;-1.464;2022-12-18T01:49:02;101039.06;;;0.40;100.00
29839;BME280;18669;53.356;-1.464;2022-12-18T01:51:29;101041.88;;;0.48;100.00
29839;BME280;18669;53.356;-1.464;2022-12-18T01:53:57;101036.41;;;0.38;100.00
29839;BME280;18669;53.356;-1.464;2022-12-18T01:56:23;101053.56;;;0.33;100.00
29839;BME280;18669;53.356;-1.464;2022-12-18T01:59:02;101047.84;;;0.45;100.00
29839;BME280;18669;53.356;-1.464;2022-12-18T02:01:32;101060.53;;;0.36;100.00
29839;BME280;18669;53.356;-1.464;2022-12-18T02:04:24;101065.13;;;0.46;100.00
29839;BME280;18669;53.356;-1.464;2022-12-18T02:07:03;101061.34;;;0.35;100.00
29839;BME280;18669;53.356;-1.464;2022-12-18T02:09:43;101064.69;;;0.31;100.00
29839;BME280;18669;53.356;-1.464;2022-12-18T02:12:21;101068.94;;;0.28;100.00
29839;BME280;18669;53.356;-1.464;2022-12-18T02:15:00;101056.72;;;0.23;100.00
29839;BME280;18669;53.356;-1.464;2022-12-18T02:20:27;101060.13;;;0.22;100.00
29839;BME280;18669;53.356;-1.464;2022-12-18T02:25:55;101061.63;;;0.13;100.00
29839;BME280;18669;53.356;-1.464;2022-12-18T02:28:30;101062.34;;;0.09;100.00
29839;BME280;18669;53.356;-1.464;2022-12-18T02:30:59;101064.00;;;0.07;100.00
29839;BME280;18669;53.356;-1.464;2022-12-18T02:33:27;101075.03;;;0.00;100.00
29839;BME280;18669;53.356;-1.464;2022-12-18T02:35:58;101074.34;;;0.06;100.00
29839;BME280;18669;53.356;-1.464;2022-12-18T02:38:26;101062.03;;;-0.02;100.00
29839;BME280;18669;53.356;-1.464;2022-12-18T02:40:53;101062.66;;;-0.10;100.00
29839;BME280;18669;53.356;-1.464;2022-12-18T02:43:20;101069.47;;;-0.12;100.00
29839;BME280;18669;53.356;-1.464;2022-12-18T02:45:53;101067.28;;;0.00;100.00
29839;BME280;18669;53.356;-1.464;2022-12-18T02:48:29;101070.72;;;0.01;100.00
29839;BME280;18669;53.356;-1.464;2022-12-18T02:53:38;101066.28;;;-0.04;100.00
29839;BME280;18669;53.356;-1.464;2022-12-18T02:56:09;101058.50;;;-0.05;100.00
29839;BME280;18669;53.356;-1.464;2022-12-18T02:59:04;101047.44;;;0.01;100.00
29839;BME280;18669;53.356;-1.464;2022-12-18T03:01:45;101051.81;;;0.03;100.00
29839;BME280;18669;53.356;-1.464;2022-12-18T03:04:26;101047.44;;;0.01;100.00
29839;BME280;18669;53.356;-1.464;2022-12-18T03:06:57;101044.66;;;-0.06;100.00
29839;BME280;18669;53.356;-1.464;2022-12-18T03:09:38;101051.75;;;0.00;100.00
29839;BME280;18669;53.356;-1.464;2022-12-18T03:12:15;101048.19;;;-0.04;100.00
29839;BME280;18669;53.356;-1.464;2022-12-18T03:17:33;101033.00;;;-0.22;100.00
29839;BME280;18669;53.356;-1.464;2022-12-18T03:20:08;101047.91;;;-0.13;100.00
29839;BME280;18669;53.356;-1.464;2022-12-18T03:22:37;101047.06;;;-0.12;100.00
29839;BME280;18669;53.356;-1.464;2022-12-18T03:25:08;101045.50;;;-0.07;100.00
29839;BME280;18669;53.356;-1.464;2022-12-18T03:27:37;101046.31;;;-0.09;100.00
29839;BME280;18669;53.356;-1.464;2022-12-18T03:30:08;101036.06;;;-0.06;100.00
29839;BME280;18669;53.356;-1.464;2022-12-18T03:35:19;101029.22;;;-0.04;100.00
29839;BME280;18669;53.356;-1.464;2022-12-18T03:37:47;101034.22;;;-0.09;100.00
29839;BME280;18669;53.356;-1.464;2022-12-18T03:40:13;101033.13;;;0.12;100.00
29839;BME280;18669;53.356;-1.464;2022-12-18T03:42:48;101020.19;;;0.12;100.00
29839;BME280;18669;53.356;-1.464;2022-12-18T03:48:09;101001.06;;;0.07;100.00
29839;BME280;18669;53.356;-1.464;2022-12-18T03:50:44;100999.25;;;0.04;100.00
29839;BME280;18669;53.356;-1.464;2022-12-18T03:55:53;100990.34;;;-0.06;100.00
29839;BME280;18669;53.356;-1.464;2022-12-18T03:58:24;100982.66;;;-0.04;100.00
29839;BME280;18669;53.356;-1.464;2022-12-18T04:00:53;100985.09;;;-0.09;100.00
29839;BME280;18669;53.356;-1.464;2022-12-18T04:03:20;100972.03;;;-0.13;100.00
29839;BME280;18669;53.356;-1.464;2022-12-18T04:05:50;100961.78;;;-0.10;100.00
29839;BME280;18669;53.356;-1.464;2022-12-18T04:08:18;100957.22;;;-0.19;100.00
29839;BME280;18669;53.356;-1.464;2022-12-18T04:10:45;100958.09;;;-0.19;100.00
29839;BME280;18669;53.356;-1.464;2022-12-18T04:13:12;100954.66;;;-0.19;100.00
29839;BME280;18669;53.356;-1.464;2022-12-18T04:15:38;100953.00;;;-0.16;100.00
29839;BME280;18669;53.356;-1.464;2022-12-18T04:18:05;100941.72;;;-0.19;100.00
29839;BME280;18669;53.356;-1.464;2022-12-18T04:20:31;100933.06;;;-0.20;100.00
29839;BME280;18669;53.356;-1.464;2022-12-18T04:22:57;100938.31;;;-0.18;100.00
29839;BME280;18669;53.356;-1.464;2022-12-18T04:25:24;100935.75;;;-0.17;100.00
29839;BME280;18669;53.356;-1.464;2022-12-18T04:27:50;100942.66;;;-0.16;100.00
29839;BME280;18669;53.356;-1.464;2022-12-18T04:30:16;100950.53;;;-0.11;100.00
29839;BME280;18669;53.356;-1.464;2022-12-18T04:32:42;100940.19;;;-0.11;100.00
29839;BME280;18669;53.356;-1.464;2022-12-18T04:35:08;100933.28;;;-0.12;100.00
29839;BME280;18669;53.356;-1.464;2022-12-18T04:37:36;100925.53;;;-0.12;100.00
29839;BME280;18669;53.356;-1.464;2022-12-18T04:40:02;100910.09;;;-0.09;100.00
29839;BME280;18669;53.356;-1.464;2022-12-18T04:42:29;100906.59;;;-0.11;100.00
29839;BME280;18669;53.356;-1.464;2022-12-18T04:44:55;100910.84;;;-0.13;100.00
29839;BME280;18669;53.356;-1.464;2022-12-18T04:47:21;100912.72;;;-0.07;100.00
29839;BME280;18669;53.356;-1.464;2022-12-18T04:49:49;100915.25;;;-0.09;100.00
29839;BME280;18669;53.356;-1.464;2022-12-18T04:52:15;100911.91;;;-0.06;100.00
29839;BME280;18669;53.356;-1.464;2022-12-18T04:54:41;100907.59;;;-0.06;100.00
29839;BME280;18669;53.356;-1.464;2022-12-18T04:57:07;100907.75;;;-0.01;100.00
29839;BME280;18669;53.356;-1.464;2022-12-18T04:59:33;100893.81;;;-0.05;100.00
29839;BME280;18669;53.356;-1.464;2022-12-18T05:02:00;100880.97;;;-0.02;100.00
29839;BME280;18669;53.356;-1.464;2022-12-18T05:04:26;100872.38;;;-0.01;100.00
29839;BME280;18669;53.356;-1.464;2022-12-18T05:06:52;100869.78;;;-0.01;100.00
29839;BME280;18669;53.356;-1.464;2022-12-18T05:09:18;100880.13;;;-0.02;100.00
29839;BME280;18669;53.356;-1.464;2022-12-18T05:11:45;100875.88;;;0.00;100.00
29839;BME280;18669;53.356;-1.464;2022-12-18T05:14:12;100871.63;;;0.04;100.00
29839;BME280;18669;53.356;-1.464;2022-12-18T05:16:38;100869.06;;;0.05;100.00
29839;BME280;18669;53.356;-1.464;2022-12-18T05:19:04;100850.97;;;0.05;100.00
29839;BME280;18669;53.356;-1.464;2022-12-18T05:21:31;100845.94;;;0.10;100.00
29839;BME280;18669;53.356;-1.464;2022-12-18T05:23:57;100844.38;;;0.17;100.00
29839;BME280;18669;53.356;-1.464;2022-12-18T05:26:24;100833.19;;;0.18;100.00
29839;BME280;18669;53.356;-1.464;2022-12-18T05:28:50;100845.38;;;0.23;100.00
29839;BME280;18669;53.356;-1.464;2022-12-18T05:31:16;100848.09;;;0.28;100.00
29839;BME280;18669;53.356;-1.464;2022-12-18T05:33:43;100848.31;;;0.37;100.00
29839;BME280;18669;53.356;-1.464;2022-12-18T05:36:09;100839.41;;;0.61;100.00
29839;BME280;18669;53.356;-1.464;2022-12-18T05:38:39;100840.75;;;0.45;100.00
29839;BME280;18669;53.356;-1.464;2022-12-18T05:41:07;100841.47;;;0.39;100.00
29839;BME280;18669;53.356;-1.464;2022-12-18T05:43:35;100835.91;;;0.59;100.00
29839;BME280;18669;53.356;-1.464;2022-12-18T05:46:11;100839.50;;;0.64;100.00
29839;BME280;18669;53.356;-1.464;2022-12-18T05:48:37;100838.31;;;0.51;100.00
29839;BME280;18669;53.356;-1.464;2022-12-18T05:51:06;100835.25;;;0.68;100.00
29839;BME280;18669;53.356;-1.464;2022-12-18T05:53:35;100850.63;;;0.62;100.00
29839;BME280;18669;53.356;-1.464;2022-12-18T05:56:03;100858.66;;;0.72;100.00
29839;BME280;18669;53.356;-1.464;2022-12-18T05:58:30;100855.94;;;0.66;100.00
29839;BME280;18669;53.356;-1.464;2022-12-18T06:00:57;100852.22;;;0.55;100.00
29839;BME280;18669;53.356;-1.464;2022-12-18T06:03:23;100857.47;;;0.58;100.00
29839;BME280;18669;53.356;-1.464;2022-12-18T06:05:50;100859.13;;;0.56;100.00
29839;BME280;18669;53.356;-1.464;2022-12-18T06:08:16;100857.41;;;0.56;100.00
29839;BME280;18669;53.356;-1.464;2022-12-18T06:10:42;100861.41;;;0.43;100.00
29839;BME280;18669;53.356;-1.464;2022-12-18T06:13:15;100867.59;;;0.49;100.00
29839;BME280;18669;53.356;-1.464;2022-12-18T06:15:41;100861.63;;;0.51;100.00
29839;BME280;18669;53.356;-1.464;2022-12-18T06:18:07;100846.69;;;0.41;100.00
29839;BME280;18669;53.356;-1.464;2022-12-18T06:20:34;100836.25;;;0.38;100.00
29839;BME280;18669;53.356;-1.464;2022-12-18T06:23:02;100838.03;;;0.39;100.00
29839;BME280;18669;53.356;-1.464;2022-12-18T06:25:28;100827.59;;;0.36;100.00
29839;BME280;18669;53.356;-1.464;2022-12-18T06:27:54;100851.06;;;0.43;100.00
29839;BME280;18669;53.356;-1.464;2022-12-18T06:30:20;100849.09;;;0.33;100.00
29839;BME280;18669;53.356;-1.464;2022-12-18T06:32:47;100842.03;;;0.63;100.00
29839;BME280;18669;53.356;-1.464;2022-12-18T06:35:13;100827.06;;;0.49;100.00
29839;BME280;18669;53.356;-1.464;2022-12-18T06:37:40;100825.38;;;0.51;100.00
29839;BME280;18669;53.356;-1.464;2022-12-18T06:40:06;100830.59;;;0.53;100.00
29839;BME280;18669;53.356;-1.464;2022-12-18T06:42:32;100834.00;;;0.50;100.00
29839;BME280;18669;53.356;-1.464;2022-12-18T06:44:58;100843.91;;;0.68;100.00
29839;BME280;18669;53.356;-1.464;2022-12-18T06:47:27;100842.88;;;0.62;100.00
29839;BME280;18669;53.356;-1.464;2022-12-18T06:49:54;100852.16;;;0.53;100.00
29839;BME280;18669;53.356;-1.464;2022-12-18T06:52:20;100854.75;;;0.53;100.00
29839;BME280;18669;53.356;-1.464;2022-12-18T06:54:46;100861.88;;;0.62;100.00
29839;BME280;18669;53.356;-1.464;2022-12-18T06:57:12;100861.94;;;0.65;100.00
29839;BME280;18669;53.356;-1.464;2022-12-18T06:59:39;100874.81;;;0.62;100.00
29839;BME280;18669;53.356;-1.464;2022-12-18T07:02:06;100861.72;;;0.56;100.00
29839;BME280;18669;53.356;-1.464;2022-12-18T07:04:32;100859.97;;;0.55;100.00
29839;BME280;18669;53.356;-1.464;2022-12-18T07:06:58;100842.84;;;0.60;100.00
29839;BME280;18669;53.356;-1.464;2022-12-18T07:09:25;100843.59;;;0.56;100.00
29839;BME280;18669;53.356;-1.464;2022-12-18T07:11:51;100824.41;;;0.46;100.00
29839;BME280;18669;53.356;-1.464;2022-12-18T07:14:17;100820.81;;;0.41;100.00
29839;BME280;18669;53.356;-1.464;2022-12-18T07:16:43;100823.56;;;0.49;100.00
29839;BME280;18669;53.356;-1.464;2022-12-18T07:19:09;100826.16;;;0.47;100.00
29839;BME280;18669;53.356;-1.464;2022-12-18T07:21:35;100814.94;;;0.48;100.00
29839;BME280;18669;53.356;-1.464;2022-12-18T07:24:02;100822.78;;;0.51;100.00
29839;BME280;18669;53.356;-1.464;2022-12-18T07:26:28;100830.72;;;0.59;100.00
29839;BME280;18669;53.356;-1.464;2022-12-18T07:28:55;100824.66;;;0.58;100.00
29839;BME280;18669;53.356;-1.464;2022-12-18T07:31:23;100816.06;;;0.59;100.00
29839;BME280;18669;53.356;-1.464;2022-12-18T07:33:50;100798.69;;;0.54;100.00
29839;BME280;18669;53.356;-1.464;2022-12-18T07:36:17;100805.50;;;0.50;100.00
29839;BME280;18669;53.356;-1.464;2022-12-18T07:38:46;100809.03;;;0.54;100.00
29839;BME280;18669;53.356;-1.464;2022-12-18T07:41:13;100790.59;;;0.40;100.00
29839;BME280;18669;53.356;-1.464;2022-12-18T07:43:40;100788.00;;;0.40;100.00
29839;BME280;18669;53.356;-1.464;2022-12-18T07:46:07;100791.25;;;0.31;100.00
29839;BME280;18669;53.356;-1.464;2022-12-18T07:48:34;100789.59;;;0.33;100.00
29839;BME280;18669;53.356;-1.464;2022-12-18T07:51:01;100796.63;;;0.40;100.00
29839;BME280;18669;53.356;-1.464;2022-12-18T07:53:28;100799.13;;;0.36;100.00
29839;BME280;18669;53.356;-1.464;2022-12-18T07:56:02;100785.25;;;0.32;100.00
29839;BME280;18669;53.356;-1.464;2022-12-18T07:58:29;100777.44;;;0.31;100.00
29839;BME280;18669;53.356;-1.464;2022-12-18T08:01:09;100777.88;;;0.49;100.00
29839;BME280;18669;53.356;-1.464;2022-12-18T08:03:36;100782.00;;;0.42;100.00
29839;BME280;18669;53.356;-1.464;2022-12-18T08:06:06;100798.59;;;0.51;100.00
29839;BME280;18669;53.356;-1.464;2022-12-18T08:08:34;100802.78;;;0.46;100.00
29839;BME280;18669;53.356;-1.464;2022-12-18T08:11:00;100810.72;;;0.52;100.00
29839;BME280;18669;53.356;-1.464;2022-12-18T08:13:27;100800.34;;;0.50;100.00
29839;BME280;18669;53.356;-1.464;2022-12-18T08:16:03;100793.56;;;0.57;100.00
29839;BME280;18669;53.356;-1.464;2022-12-18T08:18:32;100811.59;;;0.52;100.00
29839;BME280;18669;53.356;-1.464;2022-12-18T08:21:16;100812.47;;;0.54;100.00
29839;BME280;18669;53.356;-1.464;2022-12-18T08:23:44;100813.22;;;0.49;100.00
29839;BME280;18669;53.356;-1.464;2022-12-18T08:26:11;100806.44;;;0.52;100.00
29839;BME280;18669;53.356;-1.464;2022-12-18T08:28:37;100818.50;;;0.53;100.00
29839;BME280;18669;53.356;-1.464;2022-12-18T08:31:04;100801.16;;;0.49;100.00
29839;BME280;18669;53.356;-1.464;2022-12-18T08:33:30;100797.63;;;0.46;100.00
29839;BME280;18669;53.356;-1.464;2022-12-18T08:35:58;100804.72;;;0.54;100.00
29839;BME280;18669;53.356;-1.464;2022-12-18T08:38:24;100802.03;;;0.50;100.00
29839;BME280;18669;53.356;-1.464;2022-12-18T08:41:01;100798.84;;;0.62;100.00
29839;BME280;18669;53.356;-1.464;2022-12-18T08:43:27;100795.19;;;0.53;100.00
29839;BME280;18669;53.356;-1.464;2022-12-18T08:46:16;100798.19;;;0.70;100.00
29839;BME280;18669;53.356;-1.464;2022-12-18T08:48:42;100791.81;;;0.56;100.00
29839;BME280;18669;53.356;-1.464;2022-12-18T08:51:09;100784.91;;;0.56;100.00
29839;BME280;18669;53.356;-1.464;2022-12-18T08:53:37;100784.16;;;0.61;100.00
29839;BME280;18669;53.356;-1.464;2022-12-18T08:56:03;100749.56;;;0.57;100.00
29839;BME280;18669;53.356;-1.464;2022-12-18T08:58:30;100745.00;;;0.47;100.00
29839;BME280;18669;53.356;-1.464;2022-12-18T09:01:07;100741.88;;;0.60;100.00
29839;BME280;18669;53.356;-1.464;2022-12-18T09:03:37;100748.66;;;0.56;100.00
29839;BME280;18669;53.356;-1.464;2022-12-18T09:06:04;100754.91;;;0.65;100.00
29839;BME280;18669;53.356;-1.464;2022-12-18T09:08:36;100759.38;;;0.72;100.00
29839;BME280;18669;53.356;-1.464;2022-12-18T09:11:12;100748.19;;;0.74;100.00
29839;BME280;18669;53.356;-1.464;2022-12-18T09:13:39;100745.38;;;0.64;100.00
29839;BME280;18669;53.356;-1.464;2022-12-18T09:16:05;100731.72;;;0.71;100.00
29839;BME280;18669;53.356;-1.464;2022-12-18T09:18:31;100732.50;;;0.65;100.00
29839;BME280;18669;53.356;-1.464;2022-12-18T09:20:58;100729.00;;;0.65;100.00
29839;BME280;18669;53.356;-1.464;2022-12-18T09:23:24;100731.59;;;0.65;100.00
29839;BME280;18669;53.356;-1.464;2022-12-18T09:25:50;100727.16;;;0.59;100.00
29839;BME280;18669;53.356;-1.464;2022-12-18T09:28:18;100715.34;;;0.70;100.00
29839;BME280;18669;53.356;-1.464;2022-12-18T09:30:48;100704.97;;;0.70;100.00
29839;BME280;18669;53.356;-1.464;2022-12-18T09:33:15;100690.22;;;0.68;100.00
29839;BME280;18669;53.356;-1.464;2022-12-18T09:35:43;100693.88;;;0.76;100.00
29839;BME280;18669;53.356;-1.464;2022-12-18T09:38:18;100679.38;;;0.84;100.00
29839;BME280;18669;53.356;-1.464;2022-12-18T09:41:16;100684.63;;;0.91;100.00
29839;BME280;18669;53.356;-1.464;2022-12-18T09:43:47;100679.47;;;0.91;100.00
29839;BME280;18669;53.356;-1.464;2022-12-18T09:46:38;100662.28;;;0.94;100.00
29839;BME280;18669;53.356;-1.464;2022-12-18T09:49:13;100659.56;;;0.89;100.00
29839;BME280;18669;53.356;-1.464;2022-12-18T09:51:48;100635.53;;;0.97;100.00
29839;BME280;18669;53.356;-1.464;2022-12-18T09:54:22;100639.09;;;1.00;100.00
29839;BME280;18669;53.356;-1.464;2022-12-18T09:56:51;100648.53;;;0.98;100.00
29839;BME280;18669;53.356;-1.464;2022-12-18T09:59:24;100651.25;;;1.04;100.00
29839;BME280;18669;53.356;-1.464;2022-12-18T10:01:53;100646.81;;;0.99;100.00
29839;BME280;18669;53.356;-1.464;2022-12-18T10:04:21;100637.41;;;1.02;100.00
29839;BME280;18669;53.356;-1.464;2022-12-18T10:07:12;100640.97;;;1.11;100.00
29839;BME280;18669;53.356;-1.464;2022-12-18T10:09:49;100645.25;;;1.09;100.00
29839;BME280;18669;53.356;-1.464;2022-12-18T10:17:50;100636.75;;;1.16;100.00
29839;BME280;18669;53.356;-1.464;2022-12-18T10:25:53;100615.19;;;1.17;100.00
29839;BME280;18669;53.356;-1.464;2022-12-18T10:28:26;100598.72;;;1.13;100.00
29839;BME280;18669;53.356;-1.464;2022-12-18T10:30:57;100601.31;;;1.15;100.00
29839;BME280;18669;53.356;-1.464;2022-12-18T10:33:31;100601.44;;;1.19;100.00
29839;BME280;18669;53.356;-1.464;2022-12-18T10:36:02;100589.44;;;1.28;100.00
29839;BME280;18669;53.356;-1.464;2022-12-18T10:38:31;100574.75;;;1.27;100.00
29839;BME280;18669;53.356;-1.464;2022-12-18T10:41:24;100571.50;;;1.39;100.00
29839;BME280;18669;53.356;-1.464;2022-12-18T10:44:19;100568.91;;;1.40;100.00
29839;BME280;18669;53.356;-1.464;2022-12-18T10:46:55;100556.75;;;1.36;100.00
29839;BME280;18669;53.356;-1.464;2022-12-18T10:49:33;100559.47;;;1.44;100.00
29839;BME280;18669;53.356;-1.464;2022-12-18T10:52:26;100556.16;;;1.53;100.00
29839;BME280;18669;53.356;-1.464;2022-12-18T10:55:06;100546.69;;;1.55;100.00
29839;BME280;18669;53.356;-1.464;2022-12-18T10:57:47;100544.91;;;1.51;100.00
29839;BME280;18669;53.356;-1.464;2022-12-18T11:00:30;100539.81;;;1.57;100.00
29839;BME280;18669;53.356;-1.464;2022-12-18T11:03:00;100530.19;;;1.51;100.00
29839;BME280;18669;53.356;-1.464;2022-12-18T11:05:33;100536.38;;;1.59;100.00
29839;BME280;18669;53.356;-1.464;2022-12-18T11:08:07;100537.38;;;1.68;100.00
29839;BME280;18669;53.356;-1.464;2022-12-18T11:10:47;100525.25;;;1.67;100.00
29839;BME280;18669;53.356;-1.464;2022-12-18T11:13:22;100518.44;;;1.75;100.00
29839;BME280;18669;53.356;-1.464;2022-12-18T11:15:52;100506.19;;;1.64;100.00
29839;BME280;18669;53.356;-1.464;2022-12-18T11:18:35;100505.53;;;1.79;100.00
29839;BME280;18669;53.356;-1.464;2022-12-18T11:21:13;100515.03;;;1.79;100.00
29839;BME280;18669;53.356;-1.464;2022-12-18T11:23:53;100508.13;;;1.79;100.00
29839;BME280;18669;53.356;-1.464;2022-12-18T11:26:34;100507.22;;;1.77;100.00
29839;BME280;18669;53.356;-1.464;2022-12-18T11:29:15;100497.66;;;1.73;100.00
29839;BME280;18669;53.356;-1.464;2022-12-18T11:31:47;100489.09;;;1.79;100.00
29839;BME280;18669;53.356;-1.464;2022-12-18T11:34:28;100477.13;;;1.89;100.00
29839;BME280;18669;53.356;-1.464;2022-12-18T11:37:00;100477.94;;;1.85;100.00
29839;BME280;18669;53.356;-1.464;2022-12-18T11:39:37;100467.47;;;1.80;100.00
29839;BME280;18669;53.356;-1.464;2022-12-18T11:42:13;100461.53;;;1.87;100.00
29839;BME280;18669;53.356;-1.464;2022-12-18T11:45:41;100454.63;;;1.88;100.00
29839;BME280;18669;53.356;-1.464;2022-12-18T11:48:18;100446.94;;;1.97;100.00
29839;BME280;18669;53.356;-1.464;2022-12-18T11:50:50;100430.47;;;1.95;100.00
29839;BME280;18669;53.356;-1.464;2022-12-18T11:53:18;100425.31;;;1.98;100.00
29839;BME280;18669;53.356;-1.464;2022-12-18T11:58:18;100413.38;;;2.14;100.00
29839;BME280;18669;53.356;-1.464;2022-12-18T12:09:17;100381.38;;;2.14;100.00
29839;BME280;18669;53.356;-1.464;2022-12-18T12:14:43;100362.44;;;2.22;100.00
29839;BME280;18669;53.356;-1.464;2022-12-18T12:17:33;100344.28;;;2.26;100.00
29839;BME280;18669;53.356;-1.464;2022-12-18T12:20:20;100337.38;;;2.26;100.00
29839;BME280;18669;53.356;-1.464;2022-12-18T12:25:52;100341.69;;;2.24;100.00
29839;BME280;18669;53.356;-1.464;2022-12-18T12:34:16;100313.16;;;2.29;100.00
29839;BME280;18669;53.356;-1.464;2022-12-18T12:39:14;100303.72;;;2.38;100.00
29839;BME280;18669;53.356;-1.464;2022-12-18T12:41:44;100302.75;;;2.24;100.00
29839;BME280;18669;53.356;-1.464;2022-12-18T12:44:41;100289.81;;;2.30;100.00
29839;BME280;18669;53.356;-1.464;2022-12-18T12:47:16;100294.91;;;2.19;100.00
29839;BME280;18669;53.356;-1.464;2022-12-18T12:49:45;100285.53;;;2.34;100.00
29839;BME280;18669;53.356;-1.464;2022-12-18T12:54:55;100278.66;;;2.42;100.00
29839;BME280;18669;53.356;-1.464;2022-12-18T12:57:27;100288.25;;;2.52;100.00
29839;BME280;18669;53.356;-1.464;2022-12-18T13:00:05;100284.75;;;2.50;100.00
29839;BME280;18669;53.356;-1.464;2022-12-18T13:08:10;100249.28;;;2.52;100.00
29839;BME280;18669;53.356;-1.464;2022-12-18T13:10:39;100246.69;;;2.46;100.00
29839;BME280;18669;53.356;-1.464;2022-12-18T13:21:22;100226.75;;;2.42;100.00
29839;BME280;18669;53.356;-1.464;2022-12-18T13:23:50;100217.09;;;2.21;100.00
29839;BME280;18669;53.356;-1.464;2022-12-18T13:36:39;100183.38;;;2.27;100.00
29839;BME280;18669;53.356;-1.464;2022-12-18T13:39:31;100186.03;;;2.38;100.00
29839;BME280;18669;53.356;-1.464;2022-12-18T13:44:36;100156.59;;;2.37;100.00
29839;BME280;18669;53.356;-1.464;2022-12-18T13:47:04;100155.72;;;2.31;100.00
29839;BME280;18669;53.356;-1.464;2022-12-18T13:49:39;100145.34;;;2.35;100.00
29839;BME280;18669;53.356;-1.464;2022-12-18T13:52:24;100146.19;;;2.34;100.00
29839;BME280;18669;53.356;-1.464;2022-12-18T13:54:53;100134.91;;;2.28;100.00
29839;BME280;18669;53.356;-1.464;2022-12-18T13:57:35;100142.66;;;2.18;100.00
29839;BME280;18669;53.356;-1.464;2022-12-18T14:00:27;100129.72;;;2.23;100.00
29839;BME280;18669;53.356;-1.464;2022-12-18T14:02:55;100123.59;;;2.10;100.00
29839;BME280;18669;53.356;-1.464;2022-12-18T14:05:29;100127.00;;;2.03;100.00
29839;BME280;18669;53.356;-1.464;2022-12-18T14:08:11;100117.56;;;2.17;100.00
29839;BME280;18669;53.356;-1.464;2022-12-18T14:10:46;100111.50;;;2.17;100.00
29839;BME280;18669;53.356;-1.464;2022-12-18T14:13:28;100101.09;;;2.14;100.00
29839;BME280;18669;53.356;-1.464;2022-12-18T14:15:55;100105.38;;;2.01;100.00
29839;BME280;18669;53.356;-1.464;2022-12-18T14:18:48;100093.31;;;2.11;100.00
29839;BME280;18669;53.356;-1.464;2022-12-18T14:21:24;100091.59;;;2.11;100.00
29839;BME280;18669;53.356;-1.464;2022-12-18T14:24:15;100081.19;;;2.06;100.00
29839;BME280;18669;53.356;-1.464;2022-12-18T14:26:42;100075.94;;;1.96;100.00